Time;durP1;ratioP1;P1;durP2;ratioP2;P2;SDS_P1;SDS_P2;PMS_P1;PMS_P2;Temp;Humidity;BMP_temperature;BMP_pressure;BME280_temperature;BME280_humidity;BME280_pressure;Samples;Min_cycle;Max_cycle;Signal;HPM_P1;HPM_P2
2022/03/01 00:01:09;;;;;;;14.53;9.30;;;3.60;98.20;;;;;;10401467;28;20833;-77
2022/03/01 00:06:24;;;;;;;14.03;8.83;;;3.60;98.30;;;;;;10400019;28;20225;-76
2022/03/01 00:11:25;;;;;;;15.93;9.07;;;3.60;98.50;;;;;;10427629;28;20213;-76
2022/03/01 00:16:30;;;;;;;13.83;8.87;;;3.50;98.60;;;;;;10402168;28;20232;-76
2022/03/01 00:21:31;;;;;;;14.40;8.17;;;3.40;98.80;;;;;;10439404;28;20221;-76
2022/03/01 00:26:31;;;;;;;14.43;8.60;;;3.40;99.10;;;;;;10431433;28;20303;-75
2022/03/01 00:31:32;;;;;;;12.27;8.87;;;3.40;99.30;;;;;;10397394;28;20218;-75
2022/03/01 00:36:33;;;;;;;13.17;8.50;;;3.30;99.50;;;;;;10393840;28;20321;-75
2022/03/01 00:41:34;;;;;;;14.20;8.63;;;3.30;99.70;;;;;;10421794;28;20704;-75
2022/03/01 00:46:35;;;;;;;13.27;8.27;;;3.20;99.90;;;;;;10421264;28;20220;-76
2022/03/01 00:51:40;;;;;;;12.80;8.13;;;3.30;99.70;;;;;;10445023;28;20224;-76
2022/03/01 00:56:40;;;;;;;15.70;8.57;;;3.30;99.50;;;;;;10432053;28;20902;-76
2022/03/01 01:01:41;;;;;;;12.97;8.53;;;3.30;99.50;;;;;;10406599;28;20352;-77
2022/03/01 01:06:45;;;;;;;12.13;8.23;;;3.20;99.40;;;;;;10395524;28;20228;-77
2022/03/01 01:11:45;;;;;;;15.47;8.80;;;3.20;99.10;;;;;;10429038;28;20264;-75
2022/03/01 01:16:46;;;;;;;13.33;7.97;;;3.20;98.90;;;;;;10393275;28;20221;-76
2022/03/01 01:27:07;;;;;;;13.00;7.67;;;3.10;99.00;;;;;;10375492;28;20223;-77
2022/03/01 01:32:09;;;;;;;15.97;8.30;;;3.10;98.60;;;;;;10387145;28;20224;-74
2022/03/01 01:37:12;;;;;;;11.73;7.67;;;3.10;98.50;;;;;;10393348;28;20291;-75
2022/03/01 01:42:13;;;;;;;11.93;8.13;;;3.00;98.60;;;;;;10385965;28;20217;-74
2022/03/01 01:47:14;;;;;;;14.33;8.07;;;3.00;98.60;;;;;;10393875;28;20273;-76
2022/03/01 01:52:18;;;;;;;13.00;8.27;;;2.90;98.40;;;;;;10384597;28;20278;-74
2022/03/01 01:57:21;;;;;;;13.63;8.53;;;2.90;98.50;;;;;;10385153;28;20229;-74
2022/03/01 02:02:24;;;;;;;14.00;8.33;;;2.80;98.60;;;;;;10392647;28;20229;-75
2022/03/01 02:07:27;;;;;;;12.67;7.60;;;2.80;98.80;;;;;;10385442;28;20367;-76
2022/03/01 02:12:28;;;;;;;15.47;9.03;;;2.70;98.90;;;;;;10389500;28;20220;-75
2022/03/01 02:17:28;;;;;;;13.33;8.37;;;2.60;98.90;;;;;;10384480;28;20247;-75
2022/03/01 02:22:33;;;;;;;14.53;8.83;;;2.60;99.30;;;;;;10391681;28;20229;-75
2022/03/01 02:27:35;;;;;;;13.73;8.27;;;2.50;99.30;;;;;;10395380;28;20221;-74
2022/03/01 02:32:37;;;;;;;16.17;8.60;;;2.50;99.40;;;;;;10391623;28;20632;-75
2022/03/01 02:37:38;;;;;;;13.80;8.40;;;2.40;99.80;;;;;;10383525;28;20228;-74
2022/03/01 02:42:42;;;;;;;14.27;8.43;;;2.40;99.90;;;;;;10397973;28;20216;-74
2022/03/01 02:47:44;;;;;;;15.70;9.43;;;2.20;99.90;;;;;;10394596;28;20599;-75
2022/03/01 02:52:45;;;;;;;14.40;8.50;;;2.20;99.90;;;;;;10383298;28;20228;-76
2022/03/01 02:57:45;;;;;;;14.73;8.80;;;2.20;99.90;;;;;;10423557;28;20223;-75
2022/03/01 03:02:46;;;;;;;14.00;8.60;;;2.20;99.90;;;;;;10385928;28;20806;-75
2022/03/01 03:07:46;;;;;;;14.07;9.13;;;2.10;99.90;;;;;;10385844;28;20221;-75
2022/03/01 03:12:47;;;;;;;16.40;9.13;;;2.00;99.90;;;;;;10418532;28;20230;-75
2022/03/01 03:17:49;;;;;;;15.63;9.63;;;2.00;99.90;;;;;;10386371;28;20212;-75
2022/03/01 03:22:50;;;;;;;14.30;8.47;;;1.90;99.90;;;;;;10390372;28;20228;-75
2022/03/01 03:27:51;;;;;;;15.80;9.30;;;1.90;99.90;;;;;;10393808;28;20221;-75
2022/03/01 03:32:52;;;;;;;13.50;9.10;;;1.90;99.90;;;;;;10386479;28;20224;-76
2022/03/01 03:37:52;;;;;;;16.23;8.73;;;1.90;99.90;;;;;;10384599;28;20255;-75
2022/03/01 03:42:53;;;;;;;14.47;9.47;;;1.80;99.90;;;;;;10381837;28;20244;-75
2022/03/01 03:47:53;;;;;;;13.97;9.10;;;1.70;99.90;;;;;;10387026;28;20224;-75
2022/03/01 03:52:54;;;;;;;16.20;8.73;;;1.70;99.90;;;;;;10384807;28;20228;-75
2022/03/01 03:57:55;;;;;;;15.33;9.33;;;1.60;99.90;;;;;;10419040;28;20252;-76
2022/03/01 04:02:56;;;;;;;16.03;9.50;;;1.60;99.90;;;;;;10384379;28;20232;-75
2022/03/01 04:07:56;;;;;;;20.70;11.67;;;1.50;99.90;;;;;;10387496;28;20224;-76
2022/03/01 04:12:57;;;;;;;17.83;9.43;;;1.50;99.90;;;;;;10388183;28;20224;-75
2022/03/01 04:17:58;;;;;;;19.23;10.90;;;1.50;99.90;;;;;;10384004;28;20275;-74
2022/03/01 04:22:59;;;;;;;19.50;10.67;;;1.50;99.90;;;;;;10401756;28;20225;-74
2022/03/01 04:27:59;;;;;;;16.33;9.50;;;1.50;99.90;;;;;;10394607;28;20661;-74
2022/03/01 04:33:00;;;;;;;15.60;9.33;;;1.50;99.90;;;;;;10390480;28;20227;-74
2022/03/01 04:38:01;;;;;;;19.67;9.70;;;1.50;99.90;;;;;;10405171;28;20216;-74
2022/03/01 04:43:02;;;;;;;18.27;9.37;;;1.40;99.90;;;;;;10397519;28;20232;-74
2022/03/01 04:48:02;;;;;;;15.37;9.50;;;1.40;99.90;;;;;;10397320;28;20225;-75
2022/03/01 04:53:04;;;;;;;16.00;9.60;;;1.30;99.90;;;;;;10394431;28;20232;-75
2022/03/01 04:58:11;;;;;;;17.37;10.60;;;1.20;99.90;;;;;;10395750;28;20681;-74
2022/03/01 05:03:11;;;;;;;16.83;10.10;;;1.10;99.90;;;;;;10395408;28;20688;-76
2022/03/01 05:08:12;;;;;;;15.67;9.90;;;1.10;99.90;;;;;;10387275;28;20225;-75
2022/03/01 05:13:13;;;;;;;18.00;10.37;;;1.00;99.90;;;;;;10395525;28;20232;-76
2022/03/01 05:18:14;;;;;;;18.90;9.97;;;0.90;99.90;;;;;;10394947;28;20299;-75
2022/03/01 05:23:15;;;;;;;15.80;9.60;;;0.90;99.90;;;;;;10433321;28;20712;-74
2022/03/01 05:28:15;;;;;;;20.33;10.53;;;0.90;99.90;;;;;;10393835;28;20224;-76
2022/03/01 05:33:19;;;;;;;18.53;9.47;;;0.80;99.90;;;;;;10398923;28;20224;-75
2022/03/01 05:38:20;;;;;;;20.80;9.67;;;0.80;99.90;;;;;;10392916;28;20223;-74
2022/03/01 05:43:21;;;;;;;18.97;9.77;;;0.70;99.90;;;;;;10397140;28;20221;-76
2022/03/01 05:48:26;;;;;;;17.47;9.63;;;0.80;99.90;;;;;;10430014;28;20224;-75
2022/03/01 05:53:27;;;;;;;16.63;9.40;;;0.80;99.90;;;;;;10392325;28;20238;-71
2022/03/01 05:58:27;;;;;;;19.57;9.57;;;0.90;99.90;;;;;;10384545;28;20308;-74
2022/03/01 06:03:28;;;;;;;18.00;9.47;;;1.00;99.90;;;;;;10391308;28;20235;-73
2022/03/01 06:08:28;;;;;;;17.17;9.60;;;1.20;99.90;;;;;;10385666;28;20225;-72
2022/03/01 06:13:29;;;;;;;15.07;8.90;;;1.20;99.90;;;;;;10396459;28;20222;-72
2022/03/01 06:18:30;;;;;;;16.50;8.73;;;1.30;99.90;;;;;;10386003;28;20312;-73
2022/03/01 06:23:32;;;;;;;16.13;9.20;;;1.30;99.90;;;;;;10390146;28;20220;-72
2022/03/01 06:28:33;;;;;;;16.70;9.37;;;1.30;99.90;;;;;;10393632;28;20262;-72
2022/03/01 06:33:33;;;;;;;16.10;8.90;;;1.30;99.90;;;;;;10389630;28;20274;-74
2022/03/01 06:38:34;;;;;;;15.93;9.63;;;1.30;99.90;;;;;;10389770;28;20218;-75
2022/03/01 06:43:34;;;;;;;16.73;10.07;;;1.40;99.90;;;;;;10398433;28;20791;-75
2022/03/01 06:48:35;;;;;;;17.00;10.03;;;1.40;99.90;;;;;;10389247;28;20216;-73
2022/03/01 06:53:36;;;;;;;15.23;9.57;;;1.40;99.90;;;;;;10383632;28;20359;-75
2022/03/01 06:58:38;;;;;;;17.57;9.13;;;1.40;99.90;;;;;;10390172;28;20299;-76
2022/03/01 07:03:39;;;;;;;16.43;9.57;;;1.50;99.90;;;;;;10427397;28;20282;-76
2022/03/01 07:08:40;;;;;;;19.50;9.37;;;1.60;99.90;;;;;;10386809;28;20299;-75
2022/03/01 07:13:40;;;;;;;15.63;9.30;;;2.40;99.90;;;;;;10386709;28;20221;-76
2022/03/01 07:18:42;;;;;;;20.43;9.43;;;2.80;98.00;;;;;;10386295;28;20229;-76
2022/03/01 07:23:42;;;;;;;15.40;8.93;;;2.60;98.00;;;;;;10389079;28;20279;-77
2022/03/01 07:28:43;;;;;;;14.73;8.83;;;3.00;97.10;;;;;;10404997;28;20753;-75
2022/03/01 07:33:43;;;;;;;17.77;9.43;;;4.80;92.90;;;;;;10387063;28;20263;-76
2022/03/01 07:38:44;;;;;;;16.00;9.40;;;6.70;84.70;;;;;;10389156;28;20228;-77
2022/03/01 07:43:44;;;;;;;15.53;10.27;;;7.70;74.70;;;;;;10392047;28;20323;-76
2022/03/01 07:48:45;;;;;;;18.13;10.47;;;7.90;70.10;;;;;;10391298;28;20748;-76
2022/03/01 07:53:46;;;;;;;14.50;9.80;;;10.20;61.20;;;;;;10387129;28;20225;-76
2022/03/01 07:58:47;;;;;;;14.00;9.70;;;10.50;56.40;;;;;;10428146;28;20355;-78
2022/03/01 08:03:49;;;;;;;13.40;9.70;;;11.60;54.00;;;;;;10395906;28;20228;-78
2022/03/01 08:08:50;;;;;;;15.37;9.53;;;13.70;47.30;;;;;;10398361;28;20216;-77
2022/03/01 08:13:50;;;;;;;13.23;9.13;;;12.40;47.90;;;;;;10429096;28;20736;-77
2022/03/01 08:18:51;;;;;;;11.03;9.37;;;14.50;43.80;;;;;;10430242;28;20216;-77
2022/03/01 08:23:52;;;;;;;11.13;8.40;;;13.60;44.20;;;;;;10392944;28;20691;-75
2022/03/01 08:28:52;;;;;;;13.50;9.90;;;12.90;45.10;;;;;;10433308;28;20298;-76
2022/03/01 08:33:53;;;;;;;14.10;9.87;;;13.60;42.40;;;;;;10399322;28;20697;-75
2022/03/01 08:38:54;;;;;;;11.83;9.13;;;13.20;43.50;;;;;;10394325;28;20233;-76
2022/03/01 08:43:54;;;;;;;14.20;9.80;;;13.70;42.10;;;;;;10394866;28;20229;-78
2022/03/01 08:48:56;;;;;;;15.27;9.70;;;15.50;38.00;;;;;;10398521;28;20372;-77
2022/03/01 08:53:59;;;;;;;13.20;9.60;;;17.10;36.40;;;;;;10389628;28;20228;-77
2022/03/01 08:59:00;;;;;;;10.37;8.67;;;18.80;33.70;;;;;;10393836;28;20300;-77
2022/03/01 09:04:01;;;;;;;11.80;8.87;;;19.40;32.20;;;;;;10398436;28;20294;-77
2022/03/01 09:09:02;;;;;;;11.97;8.80;;;18.00;32.00;;;;;;10391100;28;20228;-76
2022/03/01 09:14:03;;;;;;;12.30;9.43;;;17.50;33.30;;;;;;10387413;28;20260;-76
2022/03/01 09:19:08;;;;;;;10.43;8.77;;;18.70;32.40;;;;;;10393069;28;20594;-76
2022/03/01 09:24:09;;;;;;;13.67;8.87;;;19.60;30.30;;;;;;10387730;28;20227;-76
2022/03/01 09:29:10;;;;;;;9.93;8.70;;;17.60;30.20;;;;;;10408939;28;20227;-77
2022/03/01 09:34:10;;;;;;;10.53;8.70;;;18.90;31.00;;;;;;10392725;28;20710;-76
2022/03/01 09:39:11;;;;;;;11.17;9.10;;;16.70;31.80;;;;;;10392267;28;20224;-76
2022/03/01 09:44:15;;;;;;;9.90;8.37;;;16.20;33.30;;;;;;10409357;28;20675;-77
2022/03/01 09:49:16;;;;;;;10.73;8.97;;;18.60;31.40;;;;;;10386069;28;20658;-76
2022/03/01 09:54:22;;;;;;;11.53;8.77;;;16.50;32.40;;;;;;10394031;28;20227;-76
2022/03/01 09:59:24;;;;;;;12.43;9.43;;;15.60;34.80;;;;;;10386042;28;20274;-76
2022/03/01 10:04:25;;;;;;;14.90;9.53;;;16.40;34.40;;;;;;10383549;28;20217;-75
2022/03/01 10:09:29;;;;;;;10.90;8.47;;;13.60;36.70;;;;;;10391838;28;20220;-76
2022/03/01 10:14:33;;;;;;;9.93;8.20;;;14.80;38.10;;;;;;10417717;28;20240;-76
2022/03/01 10:19:34;;;;;;;10.83;8.63;;;16.60;33.50;;;;;;10392360;28;20226;-76
2022/03/01 10:24:35;;;;;;;12.73;8.90;;;16.20;34.30;;;;;;10392648;28;20232;-76
2022/03/01 10:29:47;;;;;;;12.07;8.83;;;16.10;33.90;;;;;;10388667;28;20222;-76
2022/03/01 10:34:58;;;;;;;10.53;8.27;;;14.10;37.20;;;;;;10434333;28;20229;-75
2022/03/01 10:40:10;;;;;;;11.40;8.57;;;14.50;36.90;;;;;;10387537;28;20210;-75
2022/03/01 10:45:11;;;;;;;9.93;8.03;;;16.60;34.90;;;;;;10392526;28;20219;-76
2022/03/01 10:50:11;;;;;;;10.43;8.70;;;16.40;33.50;;;;;;10391528;28;20181;-77
2022/03/01 10:55:33;;;;;;;11.97;9.27;;;15.20;36.10;;;;;;10382937;28;20594;-76
2022/03/01 11:00:35;;;;;;;12.60;9.20;;;15.20;35.10;;;;;;10394347;28;20221;-76
2022/03/01 11:05:36;;;;;;;11.57;9.17;;;16.50;33.80;;;;;;10420555;28;20216;-76
2022/03/01 11:10:38;;;;;;;13.23;8.73;;;16.80;32.50;;;;;;10383606;28;20215;-77
2022/03/01 11:16:07;;;;;;;14.77;8.60;;;16.60;32.60;;;;;;10386807;28;20342;-75
2022/03/01 11:21:09;;;;;;;10.97;8.40;;;16.60;31.70;;;;;;10384050;28;20219;-75
2022/03/01 11:26:14;;;;;;;10.10;7.90;;;15.50;32.90;;;;;;10389065;28;20220;-77
2022/03/01 11:31:27;;;;;;;10.37;7.73;;;14.70;34.60;;;;;;10420736;28;20249;-76
2022/03/01 11:36:31;;;;;;;11.53;7.80;;;15.30;33.30;;;;;;10432064;28;20241;-75
2022/03/01 11:41:49;;;;;;;10.47;7.60;;;13.60;36.10;;;;;;10396863;28;20632;-75
2022/03/01 11:46:53;;;;;;;9.40;6.60;;;12.10;38.20;;;;;;10426988;28;20282;-75
2022/03/01 11:51:55;;;;;;;9.73;7.03;;;11.60;39.60;;;;;;10392666;28;20633;-76
2022/03/01 11:56:57;;;;;;;11.73;7.50;;;11.40;39.30;;;;;;10395730;28;20225;-76
2022/03/01 12:01:58;;;;;;;9.73;6.63;;;11.30;40.40;;;;;;10424546;28;20316;-77
2022/03/01 12:06:59;;;;;;;9.47;6.73;;;10.70;40.00;;;;;;10393448;28;20299;-76
2022/03/01 12:12:06;;;;;;;10.03;7.07;;;10.80;40.80;;;;;;10391759;28;20440;-76
2022/03/01 12:17:24;;;;;;;11.53;7.27;;;10.80;40.60;;;;;;10394453;28;20225;-76
2022/03/01 12:22:24;;;;;;;8.80;6.73;;;10.60;41.00;;;;;;10389868;28;20528;-75
2022/03/01 12:27:30;;;;;;;9.77;6.40;;;10.40;40.80;;;;;;10396482;28;20266;-76
2022/03/01 12:32:34;;;;;;;8.23;6.40;;;10.30;40.10;;;;;;10399575;28;20221;-76
2022/03/01 12:37:34;;;;;;;9.43;7.00;;;9.90;41.50;;;;;;10388674;28;20760;-76
2022/03/01 12:42:36;;;;;;;9.83;6.30;;;9.60;41.80;;;;;;10401990;28;20220;-75
2022/03/01 12:47:40;;;;;;;9.10;6.43;;;9.40;43.20;;;;;;10423598;28;20568;-77
2022/03/01 12:52:54;;;;;;;10.40;7.00;;;9.40;43.20;;;;;;10397253;28;20223;-76
2022/03/01 12:57:55;;;;;;;8.27;6.33;;;9.20;43.30;;;;;;10393022;28;20700;-76
2022/03/01 13:03:05;;;;;;;9.00;6.60;;;9.10;43.10;;;;;;10390479;28;20220;-76
2022/03/01 13:08:16;;;;;;;9.70;6.37;;;9.10;44.30;;;;;;10419552;28;20229;-76
2022/03/01 13:13:19;;;;;;;9.40;6.10;;;9.10;44.30;;;;;;10426811;28;20229;-76
2022/03/01 13:18:26;;;;;;;9.27;6.40;;;8.90;44.10;;;;;;10386900;28;20226;-76
2022/03/01 13:23:30;;;;;;;7.10;5.70;;;8.80;43.60;;;;;;10419657;28;20233;-76
2022/03/01 13:28:37;;;;;;;8.07;6.00;;;8.70;43.80;;;;;;10392261;28;20227;-75
2022/03/01 13:33:40;;;;;;;8.33;6.07;;;8.80;44.50;;;;;;10400794;28;20289;-76
2022/03/01 13:38:41;;;;;;;10.10;6.13;;;8.80;43.90;;;;;;10389657;28;20223;-76
2022/03/01 13:43:42;;;;;;;9.87;5.90;;;8.50;43.80;;;;;;10393096;28;20228;-76
2022/03/01 13:48:43;;;;;;;9.03;6.50;;;8.40;44.20;;;;;;10390657;28;20232;-76
2022/03/01 13:53:45;;;;;;;9.57;6.03;;;8.50;45.00;;;;;;10387552;28;20285;-76
2022/03/01 13:58:49;;;;;;;9.43;6.33;;;8.60;45.10;;;;;;10390259;28;20240;-77
2022/03/01 14:03:49;;;;;;;9.10;6.43;;;8.60;45.40;;;;;;10393564;28;20232;-75
2022/03/01 14:08:54;;;;;;;11.13;6.33;;;8.70;45.10;;;;;;10390462;28;20302;-75
2022/03/01 14:13:54;;;;;;;10.23;6.43;;;8.90;44.80;;;;;;10420668;28;20309;-75
2022/03/01 14:19:01;;;;;;;7.20;5.50;;;8.80;44.50;;;;;;10391179;28;20308;-76
2022/03/01 14:24:04;;;;;;;8.03;5.87;;;8.90;44.40;;;;;;10392762;28;20277;-76
2022/03/01 14:29:11;;;;;;;9.33;6.00;;;8.90;44.00;;;;;;10391795;28;20229;-75
2022/03/01 14:34:11;;;;;;;7.83;5.37;;;8.80;44.30;;;;;;10423373;28;20229;-75
2022/03/01 14:39:12;;;;;;;9.93;5.40;;;8.90;44.70;;;;;;10393425;28;20301;-76
2022/03/01 14:44:13;;;;;;;6.77;5.60;;;9.00;45.10;;;;;;10400424;28;20259;-76
2022/03/01 14:49:14;;;;;;;6.57;5.03;;;9.10;44.80;;;;;;10384023;28;20247;-76
2022/03/01 14:54:14;;;;;;;7.80;5.67;;;9.00;44.40;;;;;;10396923;28;20687;-75
2022/03/01 14:59:16;;;;;;;8.37;4.70;;;8.80;44.90;;;;;;10416137;28;20227;-76
2022/03/01 15:04:16;;;;;;;8.57;5.60;;;8.70;44.60;;;;;;10424419;28;20227;-76
2022/03/01 15:09:17;;;;;;;8.20;5.70;;;8.70;44.90;;;;;;10416425;28;20232;-77
2022/03/01 15:14:18;;;;;;;8.37;5.90;;;8.70;45.30;;;;;;10391353;28;20246;-77
2022/03/01 15:19:19;;;;;;;8.37;6.10;;;8.70;45.90;;;;;;10384343;28;20224;-76
2022/03/01 15:24:20;;;;;;;12.43;6.53;;;8.70;46.50;;;;;;10394607;28;20212;-77
2022/03/01 15:29:20;;;;;;;9.03;6.33;;;8.70;46.70;;;;;;10384253;28;20594;-76
2022/03/01 15:34:21;;;;;;;9.53;6.20;;;8.80;46.50;;;;;;10392749;28;20231;-75
2022/03/01 15:39:21;;;;;;;10.17;6.57;;;8.90;46.40;;;;;;10390607;28;20223;-76
2022/03/01 15:44:25;;;;;;;7.30;5.63;;;8.80;46.50;;;;;;10381761;28;20289;-75
2022/03/01 15:49:25;;;;;;;9.90;5.70;;;8.80;46.50;;;;;;10389630;28;20763;-75
2022/03/01 15:54:26;;;;;;;10.20;5.97;;;8.80;46.70;;;;;;10414831;28;20319;-76
2022/03/01 15:59:27;;;;;;;10.63;6.30;;;8.80;47.40;;;;;;10385810;28;20229;-77
2022/03/01 16:04:27;;;;;;;8.87;6.23;;;8.80;47.40;;;;;;10383794;28;20227;-76
2022/03/01 16:09:28;;;;;;;9.37;6.63;;;8.70;47.40;;;;;;10425861;28;20238;-75
2022/03/01 16:14:29;;;;;;;10.67;6.27;;;8.70;48.00;;;;;;10389789;28;20231;-75
2022/03/01 16:19:29;;;;;;;12.20;6.47;;;8.60;48.40;;;;;;10390763;28;20225;-74
2022/03/01 16:24:31;;;;;;;9.40;6.30;;;8.50;48.90;;;;;;10395610;28;20269;-75
2022/03/01 16:29:31;;;;;;;12.07;7.00;;;8.30;49.70;;;;;;10383157;28;20234;-75
2022/03/01 16:34:35;;;;;;;10.00;6.90;;;8.20;50.40;;;;;;10422168;28;20710;-75
2022/03/01 16:39:38;;;;;;;10.90;6.90;;;8.10;50.90;;;;;;10406828;28;20238;-74
2022/03/01 16:44:39;;;;;;;11.17;6.80;;;8.00;51.60;;;;;;10392390;28;20244;-75
2022/03/01 16:49:40;;;;;;;9.50;6.33;;;7.80;52.00;;;;;;10398958;28;20247;-74
2022/03/01 16:54:41;;;;;;;10.37;6.93;;;7.70;52.40;;;;;;10391528;28;20228;-74
2022/03/01 16:59:41;;;;;;;11.87;7.60;;;7.60;52.90;;;;;;10395038;28;20636;-75
2022/03/01 17:04:42;;;;;;;9.70;6.37;;;7.60;53.30;;;;;;10390290;28;20223;-75
2022/03/01 17:09:43;;;;;;;11.20;7.07;;;7.60;53.70;;;;;;10392358;28;20240;-76
2022/03/01 17:14:43;;;;;;;13.50;7.00;;;7.50;54.20;;;;;;10398295;28;20230;-75
2022/03/01 17:19:44;;;;;;;10.40;6.57;;;7.40;54.50;;;;;;10393537;28;20221;-75
2022/03/01 17:24:45;;;;;;;9.33;6.83;;;7.30;54.90;;;;;;10422355;28;20227;-75
2022/03/01 17:29:46;;;;;;;8.93;6.20;;;7.30;55.20;;;;;;10393729;28;20215;-74
2022/03/01 17:34:49;;;;;;;8.60;6.50;;;7.20;55.60;;;;;;10387333;28;20883;-75
2022/03/01 17:39:49;;;;;;;10.57;7.00;;;7.20;55.80;;;;;;10390095;28;20708;-75
2022/03/01 17:44:51;;;;;;;9.27;6.20;;;7.10;55.90;;;;;;10391560;28;20220;-74
2022/03/01 17:49:52;;;;;;;10.27;6.47;;;7.10;56.00;;;;;;10428577;28;20225;-75
2022/03/01 17:54:52;;;;;;;8.83;5.90;;;7.00;56.20;;;;;;10389028;28;20708;-75
2022/03/01 17:59:53;;;;;;;8.17;5.83;;;7.00;56.10;;;;;;10422919;28;20246;-75
2022/03/01 18:04:54;;;;;;;8.53;6.40;;;6.90;56.00;;;;;;10424493;28;20228;-76
2022/03/01 18:09:54;;;;;;;9.60;6.43;;;6.90;56.10;;;;;;10390556;28;20736;-75
2022/03/01 18:14:55;;;;;;;10.80;6.63;;;6.90;56.10;;;;;;10387922;28;20287;-76
2022/03/01 18:19:55;;;;;;;11.03;6.90;;;6.80;56.50;;;;;;10389942;28;20704;-76
2022/03/01 18:24:56;;;;;;;11.17;6.57;;;6.80;56.80;;;;;;10386748;28;20213;-77
2022/03/01 18:29:56;;;;;;;12.00;6.63;;;6.70;57.10;;;;;;10395393;28;20243;-76
2022/03/01 18:34:57;;;;;;;11.30;6.70;;;6.60;57.50;;;;;;10387928;28;20247;-75
2022/03/01 18:39:57;;;;;;;9.23;6.50;;;6.50;58.20;;;;;;10392288;28;20217;-76
2022/03/01 18:44:58;;;;;;;13.30;6.87;;;6.40;58.10;;;;;;10389993;28;20209;-76
2022/03/01 18:49:59;;;;;;;11.50;7.83;;;6.40;58.30;;;;;;10401006;28;20737;-75
2022/03/01 18:54:59;;;;;;;9.73;7.03;;;6.40;58.50;;;;;;10432691;28;20704;-75
2022/03/01 19:00:03;;;;;;;10.87;6.77;;;6.30;58.40;;;;;;10385827;28;20216;-75
2022/03/01 19:05:06;;;;;;;10.10;6.87;;;6.30;58.40;;;;;;10390182;28;20244;-75
2022/03/01 19:10:10;;;;;;;12.20;8.03;;;6.20;58.70;;;;;;10396040;28;20250;-74
2022/03/01 19:15:13;;;;;;;10.07;7.40;;;6.10;59.00;;;;;;10404793;28;20293;-76
2022/03/01 19:20:14;;;;;;;11.73;6.93;;;6.00;59.20;;;;;;10400326;28;20181;-75
2022/03/01 19:25:15;;;;;;;8.20;6.27;;;5.90;59.70;;;;;;10396294;28;20271;-75
2022/03/01 19:30:16;;;;;;;8.87;6.03;;;5.90;60.00;;;;;;10390425;28;20272;-75
2022/03/01 19:35:18;;;;;;;8.60;6.30;;;5.80;60.10;;;;;;10391286;28;20244;-75
2022/03/01 19:40:19;;;;;;;11.97;6.97;;;5.80;60.10;;;;;;10390876;28;20189;-76
2022/03/01 19:45:20;;;;;;;11.60;7.70;;;5.80;60.50;;;;;;10383355;28;20192;-76
2022/03/01 19:50:23;;;;;;;11.30;7.73;;;5.80;60.80;;;;;;10391504;28;20192;-75
2022/03/01 19:55:25;;;;;;;12.67;7.60;;;5.80;61.00;;;;;;10430325;28;20240;-75
2022/03/01 20:00:28;;;;;;;12.37;7.90;;;5.70;61.40;;;;;;10433427;28;20224;-75
2022/03/01 20:05:36;;;;;;;12.70;8.50;;;5.70;61.60;;;;;;10409466;28;20213;-74
2022/03/01 20:10:37;;;;;;;11.87;7.67;;;5.60;62.20;;;;;;10421987;28;20941;-75
2022/03/01 20:15:39;;;;;;;11.13;8.30;;;5.50;62.10;;;;;;10393994;28;20224;-74
2022/03/01 20:20:39;;;;;;;11.60;6.73;;;5.40;62.70;;;;;;10420822;28;20433;-74
2022/03/01 20:25:41;;;;;;;11.33;7.40;;;5.30;62.80;;;;;;10408908;28;20212;-76
2022/03/01 20:30:45;;;;;;;10.20;6.87;;;5.10;62.90;;;;;;10395773;28;20737;-76
2022/03/01 20:35:45;;;;;;;11.63;7.30;;;5.10;63.10;;;;;;10401543;28;20267;-75
2022/03/01 20:40:46;;;;;;;8.70;6.60;;;5.00;63.40;;;;;;10443598;28;20255;-76
2022/03/01 20:45:47;;;;;;;10.07;6.30;;;5.00;63.20;;;;;;10415842;28;20362;-77
2022/03/01 20:50:48;;;;;;;10.47;5.80;;;5.00;63.10;;;;;;10415507;28;20802;-77
2022/03/01 20:55:53;;;;;;;10.10;6.10;;;5.00;63.10;;;;;;10413940;28;20667;-76
2022/03/01 21:00:57;;;;;;;9.73;6.67;;;5.00;62.30;;;;;;10409511;28;20221;-76
2022/03/01 21:05:57;;;;;;;10.53;6.90;;;5.00;63.70;;;;;;10431434;28;20774;-76
2022/03/01 21:10:58;;;;;;;11.13;6.67;;;5.00;64.00;;;;;;10425158;28;20233;-78
2022/03/01 21:15:59;;;;;;;10.63;6.57;;;5.10;63.20;;;;;;10394300;28;20270;-77
2022/03/01 21:21:03;;;;;;;10.60;6.87;;;5.00;63.10;;;;;;10399556;28;20861;-75
2022/03/01 21:26:06;;;;;;;7.33;5.70;;;4.90;63.80;;;;;;10429907;28;20225;-76
2022/03/01 21:31:07;;;;;;;9.53;6.37;;;4.80;64.70;;;;;;10430436;28;20682;-76
2022/03/01 21:36:08;;;;;;;11.80;6.70;;;4.70;64.20;;;;;;10411410;28;20308;-75
2022/03/01 21:41:08;;;;;;;9.00;6.60;;;4.70;64.10;;;;;;10409783;28;20228;-76
2022/03/01 21:46:09;;;;;;;10.93;7.30;;;4.60;64.40;;;;;;10409427;28;20213;-76
2022/03/01 21:51:13;;;;;;;13.50;8.30;;;4.60;65.20;;;;;;10410438;28;20209;-77
2022/03/01 21:56:14;;;;;;;11.60;8.57;;;4.50;66.10;;;;;;10405221;28;20232;-78
2022/03/01 22:01:15;;;;;;;13.67;9.17;;;4.50;67.10;;;;;;10399060;28;20726;-77
2022/03/01 22:06:16;;;;;;;13.40;9.07;;;4.50;67.60;;;;;;10429849;28;20647;-77
2022/03/01 22:11:16;;;;;;;12.40;8.57;;;4.50;68.10;;;;;;10394020;28;20275;-77
2022/03/01 22:16:17;;;;;;;14.13;8.47;;;4.50;68.30;;;;;;10430480;28;20233;-77
2022/03/01 22:21:21;;;;;;;12.10;8.57;;;4.60;67.80;;;;;;10407953;28;20300;-78
2022/03/01 22:26:22;;;;;;;11.97;7.57;;;4.70;67.50;;;;;;10422897;28;20228;-77
2022/03/01 22:31:23;;;;;;;11.43;7.23;;;4.70;66.50;;;;;;10402058;28;20226;-77
2022/03/01 22:36:23;;;;;;;10.67;6.93;;;4.80;65.70;;;;;;10389329;28;20868;-78
2022/03/01 22:41:24;;;;;;;9.17;6.43;;;4.80;65.70;;;;;;10398854;28;20253;-76
2022/03/01 22:46:25;;;;;;;10.23;7.10;;;4.90;64.70;;;;;;10404911;28;20226;-75
2022/03/01 22:51:26;;;;;;;10.23;6.83;;;4.90;64.80;;;;;;10393175;28;20597;-76
2022/03/01 22:56:27;;;;;;;11.13;7.63;;;5.00;64.50;;;;;;10424908;28;20239;-79
2022/03/01 23:01:30;;;;;;;11.47;7.10;;;5.00;63.90;;;;;;10393375;28;20231;-76
2022/03/01 23:06:32;;;;;;;11.57;7.17;;;5.00;63.90;;;;;;10417378;28;20232;-76
2022/03/01 23:11:33;;;;;;;11.53;6.70;;;5.00;63.70;;;;;;10390872;28;20225;-76
2022/03/01 23:16:33;;;;;;;11.23;7.40;;;5.00;64.10;;;;;;10394012;28;20229;-76
2022/03/01 23:21:34;;;;;;;10.50;7.37;;;5.00;64.00;;;;;;10389826;28;20263;-76
2022/03/01 23:26:35;;;;;;;10.13;7.60;;;5.00;64.00;;;;;;10395202;28;20223;-76
2022/03/01 23:31:36;;;;;;;11.20;7.70;;;5.00;65.00;;;;;;10394790;28;20248;-76
2022/03/01 23:36:39;;;;;;;10.57;6.73;;;5.10;65.40;;;;;;10401925;28;20368;-75
2022/03/01 23:41:43;;;;;;;11.03;7.80;;;5.00;64.60;;;;;;10393109;28;20232;-75
2022/03/01 23:46:43;;;;;;;10.43;6.90;;;5.00;65.80;;;;;;10429796;28;20308;-74
2022/03/01 23:51:44;;;;;;;11.23;7.17;;;5.00;64.00;;;;;;10400019;28;20312;-75
2022/03/01 23:56:46;;;;;;;10.10;6.97;;;4.90;64.90;;;;;;10393527;28;20232;-75
